sensor_id;sensor_type;location;lat;lon;timestamp;temperature;humidity
16404;DHT22;8311;50.158;8.642;2023-08-31T00:01:27;21.70;61.50
16404;DHT22;8311;50.158;8.642;2023-08-31T00:04:20;21.70;61.50
16404;DHT22;8311;50.158;8.642;2023-08-31T00:07:13;21.70;62.30
16404;DHT22;8311;50.158;8.642;2023-08-31T00:10:08;21.70;61.50
16404;DHT22;8311;50.158;8.642;2023-08-31T00:13:04;21.70;61.50
16404;DHT22;8311;50.158;8.642;2023-08-31T00:16:00;21.70;61.50
16404;DHT22;8311;50.158;8.642;2023-08-31T00:18:56;21.70;61.50
16404;DHT22;8311;50.158;8.642;2023-08-31T00:21:49;21.70;61.50
16404;DHT22;8311;50.158;8.642;2023-08-31T00:24:43;21.70;61.60
16404;DHT22;8311;50.158;8.642;2023-08-31T00:27:36;21.70;61.60
16404;DHT22;8311;50.158;8.642;2023-08-31T00:30:30;21.70;61.50
16404;DHT22;8311;50.158;8.642;2023-08-31T00:33:25;21.70;61.60
16404;DHT22;8311;50.158;8.642;2023-08-31T00:36:21;21.70;61.60
16404;DHT22;8311;50.158;8.642;2023-08-31T00:39:14;21.70;61.60
16404;DHT22;8311;50.158;8.642;2023-08-31T00:42:13;21.70;61.60
16404;DHT22;8311;50.158;8.642;2023-08-31T00:45:07;21.70;61.60
16404;DHT22;8311;50.158;8.642;2023-08-31T00:48:04;21.70;61.70
16404;DHT22;8311;50.158;8.642;2023-08-31T00:50:57;21.70;61.50
16404;DHT22;8311;50.158;8.642;2023-08-31T00:53:54;21.70;61.50
16404;DHT22;8311;50.158;8.642;2023-08-31T00:56:52;21.70;61.40
16404;DHT22;8311;50.158;8.642;2023-08-31T00:59:45;21.70;61.40
16404;DHT22;8311;50.158;8.642;2023-08-31T01:02:44;21.70;61.40
16404;DHT22;8311;50.158;8.642;2023-08-31T01:05:46;21.70;61.40
16404;DHT22;8311;50.158;8.642;2023-08-31T01:08:50;21.70;61.30
16404;DHT22;8311;50.158;8.642;2023-08-31T01:11:56;21.70;61.30
16404;DHT22;8311;50.158;8.642;2023-08-31T01:14:56;21.70;61.20
16404;DHT22;8311;50.158;8.642;2023-08-31T01:17:53;21.60;61.20
16404;DHT22;8311;50.158;8.642;2023-08-31T01:20:55;21.70;61.10
16404;DHT22;8311;50.158;8.642;2023-08-31T01:23:53;21.70;61.10
16404;DHT22;8311;50.158;8.642;2023-08-31T01:26:48;21.70;61.10
16404;DHT22;8311;50.158;8.642;2023-08-31T01:29:41;21.70;61.00
16404;DHT22;8311;50.158;8.642;2023-08-31T01:32:36;21.70;61.00
16404;DHT22;8311;50.158;8.642;2023-08-31T01:35:34;21.70;61.00
16404;DHT22;8311;50.158;8.642;2023-08-31T01:38:33;21.70;61.00
16404;DHT22;8311;50.158;8.642;2023-08-31T01:41:31;21.70;60.90
16404;DHT22;8311;50.158;8.642;2023-08-31T01:44:27;21.60;60.80
16404;DHT22;8311;50.158;8.642;2023-08-31T01:47:23;21.60;60.80
16404;DHT22;8311;50.158;8.642;2023-08-31T01:50:16;21.60;60.80
16404;DHT22;8311;50.158;8.642;2023-08-31T01:53:09;21.60;60.70
16404;DHT22;8311;50.158;8.642;2023-08-31T01:56:05;21.60;60.70
16404;DHT22;8311;50.158;8.642;2023-08-31T01:59:00;21.60;60.70
16404;DHT22;8311;50.158;8.642;2023-08-31T02:01:54;21.60;60.60
16404;DHT22;8311;50.158;8.642;2023-08-31T02:04:47;21.60;60.60
16404;DHT22;8311;50.158;8.642;2023-08-31T02:07:42;21.60;60.60
16404;DHT22;8311;50.158;8.642;2023-08-31T02:10:35;21.60;60.50
16404;DHT22;8311;50.158;8.642;2023-08-31T02:13:29;21.60;60.50
16404;DHT22;8311;50.158;8.642;2023-08-31T02:16:24;21.60;60.50
16404;DHT22;8311;50.158;8.642;2023-08-31T02:19:18;21.60;61.30
16404;DHT22;8311;50.158;8.642;2023-08-31T02:22:11;21.70;60.60
16404;DHT22;8311;50.158;8.642;2023-08-31T02:25:05;21.60;60.60
16404;DHT22;8311;50.158;8.642;2023-08-31T02:27:58;21.60;60.60
16404;DHT22;8311;50.158;8.642;2023-08-31T02:30:58;21.60;60.60
16404;DHT22;8311;50.158;8.642;2023-08-31T02:33:53;21.60;60.60
16404;DHT22;8311;50.158;8.642;2023-08-31T02:36:47;21.60;60.70
16404;DHT22;8311;50.158;8.642;2023-08-31T02:39:39;21.60;60.70
16404;DHT22;8311;50.158;8.642;2023-08-31T02:42:33;21.60;60.70
16404;DHT22;8311;50.158;8.642;2023-08-31T02:45:25;21.60;60.80
16404;DHT22;8311;50.158;8.642;2023-08-31T02:48:19;21.60;60.80
16404;DHT22;8311;50.158;8.642;2023-08-31T02:51:14;21.60;60.90
16404;DHT22;8311;50.158;8.642;2023-08-31T02:54:07;21.60;60.90
16404;DHT22;8311;50.158;8.642;2023-08-31T02:57:00;21.60;61.00
16404;DHT22;8311;50.158;8.642;2023-08-31T02:59:54;21.70;61.10
16404;DHT22;8311;50.158;8.642;2023-08-31T03:02:48;21.60;61.10
16404;DHT22;8311;50.158;8.642;2023-08-31T03:05:43;21.60;61.10
16404;DHT22;8311;50.158;8.642;2023-08-31T03:08:38;21.60;61.20
16404;DHT22;8311;50.158;8.642;2023-08-31T03:11:32;21.60;61.30
16404;DHT22;8311;50.158;8.642;2023-08-31T03:14:26;21.60;61.30
16404;DHT22;8311;50.158;8.642;2023-08-31T03:17:18;21.60;61.30
16404;DHT22;8311;50.158;8.642;2023-08-31T03:20:12;21.60;61.40
16404;DHT22;8311;50.158;8.642;2023-08-31T03:23:06;21.60;61.40
16404;DHT22;8311;50.158;8.642;2023-08-31T03:26:06;21.60;61.40
16404;DHT22;8311;50.158;8.642;2023-08-31T03:28:59;21.60;61.50
16404;DHT22;8311;50.158;8.642;2023-08-31T03:31:54;21.60;61.50
16404;DHT22;8311;50.158;8.642;2023-08-31T03:34:48;21.60;61.40
16404;DHT22;8311;50.158;8.642;2023-08-31T03:37:42;21.60;61.40
16404;DHT22;8311;50.158;8.642;2023-08-31T03:40:36;21.60;61.50
16404;DHT22;8311;50.158;8.642;2023-08-31T03:43:33;21.60;61.50
16404;DHT22;8311;50.158;8.642;2023-08-31T03:46:25;21.60;61.40
16404;DHT22;8311;50.158;8.642;2023-08-31T03:49:20;21.60;61.50
16404;DHT22;8311;50.158;8.642;2023-08-31T03:52:12;21.60;61.40
16404;DHT22;8311;50.158;8.642;2023-08-31T03:55:06;21.60;61.40
16404;DHT22;8311;50.158;8.642;2023-08-31T03:57:59;21.60;61.30
16404;DHT22;8311;50.158;8.642;2023-08-31T04:00:55;21.60;61.40
16404;DHT22;8311;50.158;8.642;2023-08-31T04:03:48;21.60;61.40
16404;DHT22;8311;50.158;8.642;2023-08-31T04:06:42;21.60;61.30
16404;DHT22;8311;50.158;8.642;2023-08-31T04:09:35;21.50;61.20
16404;DHT22;8311;50.158;8.642;2023-08-31T04:12:29;21.60;61.20
16404;DHT22;8311;50.158;8.642;2023-08-31T04:15:26;21.60;61.20
16404;DHT22;8311;50.158;8.642;2023-08-31T04:18:20;21.60;61.20
16404;DHT22;8311;50.158;8.642;2023-08-31T04:21:15;21.60;61.20
16404;DHT22;8311;50.158;8.642;2023-08-31T04:24:08;21.60;61.20
16404;DHT22;8311;50.158;8.642;2023-08-31T04:27:03;21.60;61.10
16404;DHT22;8311;50.158;8.642;2023-08-31T04:29:56;21.60;61.10
16404;DHT22;8311;50.158;8.642;2023-08-31T04:32:49;21.60;61.10
16404;DHT22;8311;50.158;8.642;2023-08-31T04:35:44;21.60;61.00
16404;DHT22;8311;50.158;8.642;2023-08-31T04:38:38;21.60;61.00
16404;DHT22;8311;50.158;8.642;2023-08-31T04:41:31;21.60;61.00
16404;DHT22;8311;50.158;8.642;2023-08-31T04:44:25;21.60;61.10
16404;DHT22;8311;50.158;8.642;2023-08-31T04:47:18;21.60;61.00
16404;DHT22;8311;50.158;8.642;2023-08-31T04:50:12;21.60;61.00
16404;DHT22;8311;50.158;8.642;2023-08-31T04:53:05;21.60;61.00
16404;DHT22;8311;50.158;8.642;2023-08-31T04:56:00;21.60;61.00
16404;DHT22;8311;50.158;8.642;2023-08-31T04:58:53;21.60;61.00
16404;DHT22;8311;50.158;8.642;2023-08-31T05:01:47;21.60;61.00
16404;DHT22;8311;50.158;8.642;2023-08-31T05:04:41;21.60;61.00
16404;DHT22;8311;50.158;8.642;2023-08-31T05:07:35;21.50;60.90
16404;DHT22;8311;50.158;8.642;2023-08-31T05:10:30;21.60;60.90
16404;DHT22;8311;50.158;8.642;2023-08-31T05:13:24;21.60;60.90
16404;DHT22;8311;50.158;8.642;2023-08-31T05:16:16;21.50;60.80
16404;DHT22;8311;50.158;8.642;2023-08-31T05:19:10;21.50;60.80
16404;DHT22;8311;50.158;8.642;2023-08-31T05:22:04;21.50;60.80
16404;DHT22;8311;50.158;8.642;2023-08-31T05:24:58;21.50;60.80
16404;DHT22;8311;50.158;8.642;2023-08-31T05:27:53;21.60;60.90
16404;DHT22;8311;50.158;8.642;2023-08-31T05:30:52;21.50;60.80
16404;DHT22;8311;50.158;8.642;2023-08-31T05:33:45;21.60;60.90
16404;DHT22;8311;50.158;8.642;2023-08-31T05:36:40;21.50;60.90
16404;DHT22;8311;50.158;8.642;2023-08-31T05:39:34;21.50;60.90
16404;DHT22;8311;50.158;8.642;2023-08-31T05:42:28;21.60;60.90
16404;DHT22;8311;50.158;8.642;2023-08-31T05:45:22;21.60;60.90
16404;DHT22;8311;50.158;8.642;2023-08-31T05:48:16;21.50;60.90
16404;DHT22;8311;50.158;8.642;2023-08-31T05:51:09;21.60;61.00
16404;DHT22;8311;50.158;8.642;2023-08-31T05:54:02;21.60;60.90
16404;DHT22;8311;50.158;8.642;2023-08-31T05:56:56;21.50;61.70
16404;DHT22;8311;50.158;8.642;2023-08-31T05:59:49;21.50;60.80
16404;DHT22;8311;50.158;8.642;2023-08-31T06:02:44;21.50;61.40
16404;DHT22;8311;50.158;8.642;2023-08-31T06:05:38;21.50;61.70
16404;DHT22;8311;50.158;8.642;2023-08-31T06:08:31;21.50;61.20
16404;DHT22;8311;50.158;8.642;2023-08-31T06:11:25;21.50;61.60
16404;DHT22;8311;50.158;8.642;2023-08-31T06:14:18;21.50;61.20
16404;DHT22;8311;50.158;8.642;2023-08-31T06:17:12;21.50;61.20
16404;DHT22;8311;50.158;8.642;2023-08-31T06:20:08;21.50;61.20
16404;DHT22;8311;50.158;8.642;2023-08-31T06:23:01;21.50;61.20
16404;DHT22;8311;50.158;8.642;2023-08-31T06:25:54;21.50;62.30
16404;DHT22;8311;50.158;8.642;2023-08-31T06:28:48;21.50;62.00
16404;DHT22;8311;50.158;8.642;2023-08-31T06:31:44;21.50;61.20
16404;DHT22;8311;50.158;8.642;2023-08-31T06:34:38;21.50;61.10
16404;DHT22;8311;50.158;8.642;2023-08-31T06:37:32;21.50;61.10
16404;DHT22;8311;50.158;8.642;2023-08-31T06:40:25;21.60;61.10
16404;DHT22;8311;50.158;8.642;2023-08-31T06:43:19;21.50;61.00
16404;DHT22;8311;50.158;8.642;2023-08-31T06:46:12;21.50;61.10
16404;DHT22;8311;50.158;8.642;2023-08-31T06:49:16;21.50;60.80
16404;DHT22;8311;50.158;8.642;2023-08-31T06:52:09;21.50;60.90
16404;DHT22;8311;50.158;8.642;2023-08-31T06:55:21;21.50;60.70
16404;DHT22;8311;50.158;8.642;2023-08-31T06:58:15;21.50;60.80
16404;DHT22;8311;50.158;8.642;2023-08-31T07:01:08;21.50;60.70
16404;DHT22;8311;50.158;8.642;2023-08-31T07:04:02;21.60;60.80
16404;DHT22;8311;50.158;8.642;2023-08-31T07:06:56;21.60;60.80
16404;DHT22;8311;50.158;8.642;2023-08-31T07:09:49;21.60;61.20
16404;DHT22;8311;50.158;8.642;2023-08-31T07:12:44;21.60;61.30
16404;DHT22;8311;50.158;8.642;2023-08-31T07:15:38;21.60;61.10
16404;DHT22;8311;50.158;8.642;2023-08-31T07:18:33;21.70;61.00
16404;DHT22;8311;50.158;8.642;2023-08-31T07:21:26;21.70;61.00
16404;DHT22;8311;50.158;8.642;2023-08-31T07:24:19;21.70;60.80
16404;DHT22;8311;50.158;8.642;2023-08-31T07:27:12;21.70;60.80
16404;DHT22;8311;50.158;8.642;2023-08-31T07:30:08;21.80;60.80
16404;DHT22;8311;50.158;8.642;2023-08-31T07:33:02;21.80;60.60
16404;DHT22;8311;50.158;8.642;2023-08-31T07:36:15;21.80;60.50
16404;DHT22;8311;50.158;8.642;2023-08-31T07:39:09;21.90;60.50
16404;DHT22;8311;50.158;8.642;2023-08-31T07:42:05;21.90;60.30
16404;DHT22;8311;50.158;8.642;2023-08-31T07:44:58;21.90;60.20
16404;DHT22;8311;50.158;8.642;2023-08-31T07:47:53;22.00;60.20
16404;DHT22;8311;50.158;8.642;2023-08-31T07:50:48;22.00;60.00
16404;DHT22;8311;50.158;8.642;2023-08-31T07:53:42;22.00;59.80
16404;DHT22;8311;50.158;8.642;2023-08-31T07:56:36;22.00;59.70
16404;DHT22;8311;50.158;8.642;2023-08-31T07:59:34;22.00;59.80
16404;DHT22;8311;50.158;8.642;2023-08-31T08:02:32;22.00;59.70
16404;DHT22;8311;50.158;8.642;2023-08-31T08:05:27;22.00;59.60
16404;DHT22;8311;50.158;8.642;2023-08-31T08:08:20;22.00;59.40
16404;DHT22;8311;50.158;8.642;2023-08-31T08:11:14;22.00;59.30
16404;DHT22;8311;50.158;8.642;2023-08-31T08:14:08;22.00;59.50
16404;DHT22;8311;50.158;8.642;2023-08-31T08:17:02;21.90;59.30
16404;DHT22;8311;50.158;8.642;2023-08-31T08:19:56;22.00;59.40
16404;DHT22;8311;50.158;8.642;2023-08-31T08:22:50;21.90;59.10
16404;DHT22;8311;50.158;8.642;2023-08-31T08:25:45;22.00;58.90
16404;DHT22;8311;50.158;8.642;2023-08-31T08:28:38;22.00;58.90
16404;DHT22;8311;50.158;8.642;2023-08-31T08:31:31;22.10;58.70
16404;DHT22;8311;50.158;8.642;2023-08-31T08:34:26;22.10;59.00
16404;DHT22;8311;50.158;8.642;2023-08-31T08:37:20;22.10;58.50
16404;DHT22;8311;50.158;8.642;2023-08-31T08:40:14;22.00;58.60
16404;DHT22;8311;50.158;8.642;2023-08-31T08:43:08;22.10;58.60
16404;DHT22;8311;50.158;8.642;2023-08-31T08:46:05;22.10;58.50
16404;DHT22;8311;50.158;8.642;2023-08-31T08:49:00;22.10;58.50
16404;DHT22;8311;50.158;8.642;2023-08-31T08:51:55;22.00;58.80
16404;DHT22;8311;50.158;8.642;2023-08-31T08:54:49;22.10;59.10
16404;DHT22;8311;50.158;8.642;2023-08-31T08:57:44;22.10;59.00
16404;DHT22;8311;50.158;8.642;2023-08-31T09:00:39;22.10;59.20
16404;DHT22;8311;50.158;8.642;2023-08-31T09:03:42;22.10;59.60
16404;DHT22;8311;50.158;8.642;2023-08-31T09:06:39;22.10;59.60
16404;DHT22;8311;50.158;8.642;2023-08-31T09:09:48;22.10;59.70
16404;DHT22;8311;50.158;8.642;2023-08-31T09:12:45;22.10;59.80
16404;DHT22;8311;50.158;8.642;2023-08-31T09:15:43;22.10;59.80
16404;DHT22;8311;50.158;8.642;2023-08-31T09:18:45;22.10;60.10
16404;DHT22;8311;50.158;8.642;2023-08-31T09:21:39;22.20;59.80
16404;DHT22;8311;50.158;8.642;2023-08-31T09:24:40;22.10;60.00
16404;DHT22;8311;50.158;8.642;2023-08-31T09:27:37;22.20;60.00
16404;DHT22;8311;50.158;8.642;2023-08-31T09:30:36;22.20;60.10
16404;DHT22;8311;50.158;8.642;2023-08-31T09:33:29;22.10;60.30
16404;DHT22;8311;50.158;8.642;2023-08-31T09:36:23;22.20;60.00
16404;DHT22;8311;50.158;8.642;2023-08-31T09:39:16;22.20;60.10
16404;DHT22;8311;50.158;8.642;2023-08-31T09:42:10;22.20;59.90
16404;DHT22;8311;50.158;8.642;2023-08-31T09:45:05;22.20;59.70
16404;DHT22;8311;50.158;8.642;2023-08-31T09:48:02;22.20;59.90
16404;DHT22;8311;50.158;8.642;2023-08-31T09:50:56;22.20;59.90
16404;DHT22;8311;50.158;8.642;2023-08-31T09:53:52;22.20;59.80
16404;DHT22;8311;50.158;8.642;2023-08-31T09:56:47;22.20;60.10
16404;DHT22;8311;50.158;8.642;2023-08-31T09:59:42;22.20;60.30
16404;DHT22;8311;50.158;8.642;2023-08-31T10:02:35;22.20;60.30
16404;DHT22;8311;50.158;8.642;2023-08-31T10:05:31;22.20;60.40
16404;DHT22;8311;50.158;8.642;2023-08-31T10:08:26;22.20;60.50
16404;DHT22;8311;50.158;8.642;2023-08-31T10:11:24;22.20;59.40
16404;DHT22;8311;50.158;8.642;2023-08-31T10:14:20;22.20;60.60
16404;DHT22;8311;50.158;8.642;2023-08-31T10:17:15;22.20;60.70
16404;DHT22;8311;50.158;8.642;2023-08-31T10:20:10;22.20;60.60
16404;DHT22;8311;50.158;8.642;2023-08-31T10:23:06;22.20;60.70
16404;DHT22;8311;50.158;8.642;2023-08-31T10:26:02;22.20;60.70
16404;DHT22;8311;50.158;8.642;2023-08-31T10:28:58;22.20;60.70
16404;DHT22;8311;50.158;8.642;2023-08-31T10:31:52;22.20;60.70
16404;DHT22;8311;50.158;8.642;2023-08-31T10:35:04;22.20;60.70
16404;DHT22;8311;50.158;8.642;2023-08-31T10:38:15;22.20;60.30
16404;DHT22;8311;50.158;8.642;2023-08-31T10:41:20;22.20;60.20
16404;DHT22;8311;50.158;8.642;2023-08-31T10:44:20;22.20;59.70
16404;DHT22;8311;50.158;8.642;2023-08-31T10:47:14;22.20;60.00
16404;DHT22;8311;50.158;8.642;2023-08-31T10:50:27;22.20;59.90
16404;DHT22;8311;50.158;8.642;2023-08-31T10:53:31;22.20;59.90
16404;DHT22;8311;50.158;8.642;2023-08-31T10:56:30;22.20;59.60
16404;DHT22;8311;50.158;8.642;2023-08-31T10:59:25;22.20;59.50
16404;DHT22;8311;50.158;8.642;2023-08-31T11:02:30;22.20;59.60
16404;DHT22;8311;50.158;8.642;2023-08-31T11:05:24;22.20;59.10
16404;DHT22;8311;50.158;8.642;2023-08-31T11:08:21;22.20;59.10
16404;DHT22;8311;50.158;8.642;2023-08-31T11:11:20;22.20;59.10
16404;DHT22;8311;50.158;8.642;2023-08-31T11:14:13;22.20;59.10
16404;DHT22;8311;50.158;8.642;2023-08-31T11:17:08;22.30;58.50
16404;DHT22;8311;50.158;8.642;2023-08-31T11:20:02;22.30;58.90
16404;DHT22;8311;50.158;8.642;2023-08-31T11:22:57;22.20;58.70
16404;DHT22;8311;50.158;8.642;2023-08-31T11:25:51;22.20;58.60
16404;DHT22;8311;50.158;8.642;2023-08-31T11:28:45;22.20;58.70
16404;DHT22;8311;50.158;8.642;2023-08-31T11:31:42;22.30;59.00
16404;DHT22;8311;50.158;8.642;2023-08-31T11:34:40;22.30;58.90
16404;DHT22;8311;50.158;8.642;2023-08-31T11:37:34;22.20;59.00
16404;DHT22;8311;50.158;8.642;2023-08-31T11:40:28;22.30;58.90
16404;DHT22;8311;50.158;8.642;2023-08-31T11:43:23;22.30;58.90
16404;DHT22;8311;50.158;8.642;2023-08-31T11:46:18;22.20;58.40
16404;DHT22;8311;50.158;8.642;2023-08-31T11:49:12;22.20;58.80
16404;DHT22;8311;50.158;8.642;2023-08-31T11:52:06;22.20;59.60
16404;DHT22;8311;50.158;8.642;2023-08-31T11:55:00;22.20;59.00
16404;DHT22;8311;50.158;8.642;2023-08-31T11:57:54;22.20;59.20
16404;DHT22;8311;50.158;8.642;2023-08-31T12:00:55;22.20;59.10
16404;DHT22;8311;50.158;8.642;2023-08-31T12:03:49;22.10;59.90
16404;DHT22;8311;50.158;8.642;2023-08-31T12:06:46;22.20;58.50
16404;DHT22;8311;50.158;8.642;2023-08-31T12:09:40;22.20;59.10
16404;DHT22;8311;50.158;8.642;2023-08-31T12:12:36;22.10;59.10
16404;DHT22;8311;50.158;8.642;2023-08-31T12:15:30;22.10;59.10
16404;DHT22;8311;50.158;8.642;2023-08-31T12:18:24;22.10;59.10
16404;DHT22;8311;50.158;8.642;2023-08-31T12:21:20;22.10;59.00
16404;DHT22;8311;50.158;8.642;2023-08-31T12:24:14;22.10;59.20
16404;DHT22;8311;50.158;8.642;2023-08-31T12:27:09;22.10;59.00
16404;DHT22;8311;50.158;8.642;2023-08-31T12:30:05;22.10;59.00
16404;DHT22;8311;50.158;8.642;2023-08-31T12:32:59;22.10;59.20
16404;DHT22;8311;50.158;8.642;2023-08-31T12:35:52;22.10;59.40
16404;DHT22;8311;50.158;8.642;2023-08-31T12:38:46;22.10;59.40
16404;DHT22;8311;50.158;8.642;2023-08-31T12:41:40;22.10;59.40
16404;DHT22;8311;50.158;8.642;2023-08-31T12:44:33;22.10;59.50
16404;DHT22;8311;50.158;8.642;2023-08-31T12:47:27;22.10;59.50
16404;DHT22;8311;50.158;8.642;2023-08-31T12:50:21;22.10;59.50
16404;DHT22;8311;50.158;8.642;2023-08-31T12:53:15;22.00;59.40
16404;DHT22;8311;50.158;8.642;2023-08-31T12:56:09;22.10;59.50
16404;DHT22;8311;50.158;8.642;2023-08-31T12:59:03;22.10;59.50
16404;DHT22;8311;50.158;8.642;2023-08-31T13:01:58;22.00;59.50
16404;DHT22;8311;50.158;8.642;2023-08-31T13:04:52;22.00;59.20
16404;DHT22;8311;50.158;8.642;2023-08-31T13:07:46;22.10;58.80
16404;DHT22;8311;50.158;8.642;2023-08-31T13:10:40;22.10;58.00
16404;DHT22;8311;50.158;8.642;2023-08-31T13:13:36;22.10;57.70
16404;DHT22;8311;50.158;8.642;2023-08-31T13:16:29;22.00;58.40
16404;DHT22;8311;50.158;8.642;2023-08-31T13:19:24;22.00;58.90
16404;DHT22;8311;50.158;8.642;2023-08-31T13:22:21;22.00;57.70
16404;DHT22;8311;50.158;8.642;2023-08-31T13:25:17;22.00;58.70
16404;DHT22;8311;50.158;8.642;2023-08-31T13:28:10;22.00;59.00
16404;DHT22;8311;50.158;8.642;2023-08-31T13:31:05;22.00;56.50
16404;DHT22;8311;50.158;8.642;2023-08-31T13:33:59;22.00;57.10
16404;DHT22;8311;50.158;8.642;2023-08-31T13:36:53;22.00;58.40
16404;DHT22;8311;50.158;8.642;2023-08-31T13:39:50;22.00;58.60
16404;DHT22;8311;50.158;8.642;2023-08-31T13:42:53;22.00;58.20
16404;DHT22;8311;50.158;8.642;2023-08-31T13:45:46;22.00;57.00
16404;DHT22;8311;50.158;8.642;2023-08-31T13:48:41;22.00;58.50
16404;DHT22;8311;50.158;8.642;2023-08-31T13:51:34;22.00;58.50
16404;DHT22;8311;50.158;8.642;2023-08-31T13:54:27;22.00;58.30
16404;DHT22;8311;50.158;8.642;2023-08-31T13:57:20;22.00;57.00
16404;DHT22;8311;50.158;8.642;2023-08-31T14:00:14;22.00;57.70
16404;DHT22;8311;50.158;8.642;2023-08-31T14:03:07;22.00;58.30
16404;DHT22;8311;50.158;8.642;2023-08-31T14:06:01;22.00;58.40
16404;DHT22;8311;50.158;8.642;2023-08-31T14:08:58;22.00;58.40
16404;DHT22;8311;50.158;8.642;2023-08-31T14:11:52;22.00;56.40
16404;DHT22;8311;50.158;8.642;2023-08-31T14:14:46;22.00;58.30
16404;DHT22;8311;50.158;8.642;2023-08-31T14:17:39;22.00;58.20
16404;DHT22;8311;50.158;8.642;2023-08-31T14:20:33;22.00;58.30
16404;DHT22;8311;50.158;8.642;2023-08-31T14:23:29;22.00;58.30
16404;DHT22;8311;50.158;8.642;2023-08-31T14:26:23;22.00;58.30
16404;DHT22;8311;50.158;8.642;2023-08-31T14:29:16;22.00;58.40
16404;DHT22;8311;50.158;8.642;2023-08-31T14:32:09;22.00;58.30
16404;DHT22;8311;50.158;8.642;2023-08-31T14:35:03;22.00;57.60
16404;DHT22;8311;50.158;8.642;2023-08-31T14:37:59;22.00;58.10
16404;DHT22;8311;50.158;8.642;2023-08-31T14:40:53;22.00;58.20
16404;DHT22;8311;50.158;8.642;2023-08-31T14:43:47;22.00;58.20
16404;DHT22;8311;50.158;8.642;2023-08-31T14:46:41;22.00;55.70
16404;DHT22;8311;50.158;8.642;2023-08-31T14:49:39;22.00;56.70
16404;DHT22;8311;50.158;8.642;2023-08-31T14:52:32;22.00;57.80
16404;DHT22;8311;50.158;8.642;2023-08-31T14:55:26;22.00;58.00
16404;DHT22;8311;50.158;8.642;2023-08-31T14:58:21;22.00;58.10
16404;DHT22;8311;50.158;8.642;2023-08-31T15:01:14;22.00;58.20
16404;DHT22;8311;50.158;8.642;2023-08-31T15:04:07;22.00;57.80
16404;DHT22;8311;50.158;8.642;2023-08-31T15:07:01;22.00;58.20
16404;DHT22;8311;50.158;8.642;2023-08-31T15:09:55;22.00;58.20
16404;DHT22;8311;50.158;8.642;2023-08-31T15:12:49;22.00;58.10
16404;DHT22;8311;50.158;8.642;2023-08-31T15:15:45;22.00;58.20
16404;DHT22;8311;50.158;8.642;2023-08-31T15:18:38;21.90;58.20
16404;DHT22;8311;50.158;8.642;2023-08-31T15:21:31;22.00;58.20
16404;DHT22;8311;50.158;8.642;2023-08-31T15:24:25;21.90;58.10
16404;DHT22;8311;50.158;8.642;2023-08-31T15:27:19;22.00;58.00
16404;DHT22;8311;50.158;8.642;2023-08-31T15:30:13;22.00;58.10
16404;DHT22;8311;50.158;8.642;2023-08-31T15:33:08;22.00;58.00
16404;DHT22;8311;50.158;8.642;2023-08-31T15:36:03;22.00;58.10
16404;DHT22;8311;50.158;8.642;2023-08-31T15:38:57;21.90;58.10
16404;DHT22;8311;50.158;8.642;2023-08-31T15:41:50;21.90;58.10
16404;DHT22;8311;50.158;8.642;2023-08-31T15:44:43;21.90;57.80
16404;DHT22;8311;50.158;8.642;2023-08-31T15:47:37;21.90;57.90
16404;DHT22;8311;50.158;8.642;2023-08-31T15:50:33;21.90;57.30
16404;DHT22;8311;50.158;8.642;2023-08-31T15:53:26;21.90;57.80
16404;DHT22;8311;50.158;8.642;2023-08-31T15:56:20;22.00;57.80
16404;DHT22;8311;50.158;8.642;2023-08-31T15:59:13;21.90;57.70
16404;DHT22;8311;50.158;8.642;2023-08-31T16:02:08;21.90;57.80
16404;DHT22;8311;50.158;8.642;2023-08-31T16:05:07;21.90;57.80
16404;DHT22;8311;50.158;8.642;2023-08-31T16:08:03;21.90;57.80
16404;DHT22;8311;50.158;8.642;2023-08-31T16:10:57;21.90;57.70
16404;DHT22;8311;50.158;8.642;2023-08-31T16:13:51;21.90;57.80
16404;DHT22;8311;50.158;8.642;2023-08-31T16:16:44;21.90;57.20
16404;DHT22;8311;50.158;8.642;2023-08-31T16:19:38;21.90;57.70
16404;DHT22;8311;50.158;8.642;2023-08-31T16:22:31;21.90;57.70
16404;DHT22;8311;50.158;8.642;2023-08-31T16:25:26;21.90;57.80
16404;DHT22;8311;50.158;8.642;2023-08-31T16:28:20;21.90;57.90
16404;DHT22;8311;50.158;8.642;2023-08-31T16:31:13;21.90;57.80
16404;DHT22;8311;50.158;8.642;2023-08-31T16:34:07;21.90;57.90
16404;DHT22;8311;50.158;8.642;2023-08-31T16:37:00;21.90;57.70
16404;DHT22;8311;50.158;8.642;2023-08-31T16:39:55;21.90;57.70
16404;DHT22;8311;50.158;8.642;2023-08-31T16:42:51;21.90;57.70
16404;DHT22;8311;50.158;8.642;2023-08-31T16:45:44;21.90;57.70
16404;DHT22;8311;50.158;8.642;2023-08-31T16:48:37;21.90;57.60
16404;DHT22;8311;50.158;8.642;2023-08-31T16:51:31;21.90;57.70
16404;DHT22;8311;50.158;8.642;2023-08-31T16:54:24;21.90;57.80
16404;DHT22;8311;50.158;8.642;2023-08-31T16:57:17;21.90;57.70
16404;DHT22;8311;50.158;8.642;2023-08-31T17:00:13;21.90;57.70
16404;DHT22;8311;50.158;8.642;2023-08-31T17:03:06;21.90;57.60
16404;DHT22;8311;50.158;8.642;2023-08-31T17:05:59;21.90;57.80
16404;DHT22;8311;50.158;8.642;2023-08-31T17:08:53;21.90;57.70
16404;DHT22;8311;50.158;8.642;2023-08-31T17:11:46;21.90;58.30
16404;DHT22;8311;50.158;8.642;2023-08-31T17:14:41;21.90;57.80
16404;DHT22;8311;50.158;8.642;2023-08-31T17:17:38;21.90;57.90
16404;DHT22;8311;50.158;8.642;2023-08-31T17:20:38;21.90;58.00
16404;DHT22;8311;50.158;8.642;2023-08-31T17:23:31;21.90;57.80
16404;DHT22;8311;50.158;8.642;2023-08-31T17:26:26;21.90;57.80
16404;DHT22;8311;50.158;8.642;2023-08-31T17:29:21;21.90;57.90
16404;DHT22;8311;50.158;8.642;2023-08-31T17:32:15;21.90;57.80
16404;DHT22;8311;50.158;8.642;2023-08-31T17:35:10;21.90;58.00
16404;DHT22;8311;50.158;8.642;2023-08-31T17:38:04;21.90;58.00
16404;DHT22;8311;50.158;8.642;2023-08-31T17:40:57;21.90;57.90
16404;DHT22;8311;50.158;8.642;2023-08-31T17:43:51;21.90;58.00
16404;DHT22;8311;50.158;8.642;2023-08-31T17:46:44;21.90;58.10
16404;DHT22;8311;50.158;8.642;2023-08-31T17:49:37;21.90;58.00
16404;DHT22;8311;50.158;8.642;2023-08-31T17:52:32;21.90;58.00
16404;DHT22;8311;50.158;8.642;2023-08-31T17:55:26;21.90;58.00
16404;DHT22;8311;50.158;8.642;2023-08-31T17:58:19;21.90;58.00
16404;DHT22;8311;50.158;8.642;2023-08-31T18:01:12;21.90;58.00
16404;DHT22;8311;50.158;8.642;2023-08-31T18:04:06;21.90;58.10
16404;DHT22;8311;50.158;8.642;2023-08-31T18:07:00;21.90;58.00
16404;DHT22;8311;50.158;8.642;2023-08-31T18:09:56;21.90;58.30
16404;DHT22;8311;50.158;8.642;2023-08-31T18:12:52;21.90;58.20
16404;DHT22;8311;50.158;8.642;2023-08-31T18:15:46;21.90;58.30
16404;DHT22;8311;50.158;8.642;2023-08-31T18:18:39;21.90;58.20
16404;DHT22;8311;50.158;8.642;2023-08-31T18:21:32;21.90;58.30
16404;DHT22;8311;50.158;8.642;2023-08-31T18:24:26;21.90;58.30
16404;DHT22;8311;50.158;8.642;2023-08-31T18:27:20;21.90;58.30
16404;DHT22;8311;50.158;8.642;2023-08-31T18:30:16;21.90;58.30
16404;DHT22;8311;50.158;8.642;2023-08-31T18:33:09;21.90;58.40
16404;DHT22;8311;50.158;8.642;2023-08-31T18:36:04;21.90;58.40
16404;DHT22;8311;50.158;8.642;2023-08-31T18:38:57;21.90;58.40
16404;DHT22;8311;50.158;8.642;2023-08-31T18:41:50;21.90;58.30